Time;durP1;ratioP1;P1;durP2;ratioP2;P2;SDS_P1;SDS_P2;PMS_P1;PMS_P2;Temp;Humidity;BMP_temperature;BMP_pressure;BME280_temperature;BME280_humidity;BME280_pressure;Samples;Min_cycle;Max_cycle;Signal;HPM_P1;HPM_P2
2021/12/30 00:01:11;;;;;;;26.80;8.27;;;14.30;99.90;;;;;;6312311;22;20148;-90
2021/12/30 00:03:37;;;;;;;27.27;7.33;;;14.20;99.90;;;;;;6311899;22;20486;-90
2021/12/30 00:06:04;;;;;;;19.00;5.90;;;14.30;99.90;;;;;;6311469;22;20150;-90
2021/12/30 00:08:30;;;;;;;26.67;7.27;;;14.30;99.90;;;;;;6312072;22;20151;-89
2021/12/30 00:10:56;;;;;;;20.67;6.70;;;14.30;99.90;;;;;;6312253;22;20617;-89
2021/12/30 00:13:23;;;;;;;17.80;6.40;;;14.30;99.90;;;;;;6312347;22;20188;-90
2021/12/30 00:15:49;;;;;;;17.50;5.70;;;14.30;99.90;;;;;;6312141;22;20666;-90
2021/12/30 00:18:15;;;;;;;25.20;8.90;;;14.30;99.90;;;;;;6311917;22;20163;-89
2021/12/30 00:20:41;;;;;;;14.83;5.53;;;14.40;99.90;;;;;;6312296;22;20658;-90
2021/12/30 00:23:08;;;;;;;13.93;5.13;;;14.40;99.90;;;;;;6312227;22;20226;-92
2021/12/30 00:25:39;;;;;;;18.93;5.00;;;14.40;99.90;;;;;;6311881;22;20174;-87
2021/12/30 00:28:15;;;;;;;14.80;4.87;;;14.40;99.90;;;;;;6310875;22;20528;-88
2021/12/30 00:30:42;;;;;;;9.97;4.13;;;14.50;99.90;;;;;;6311730;22;20148;-88
2021/12/30 00:33:08;;;;;;;10.77;4.07;;;14.40;99.90;;;;;;6311035;22;20589;-88
2021/12/30 00:35:34;;;;;;;9.43;3.77;;;14.40;99.90;;;;;;6312031;22;20481;-88
2021/12/30 00:38:01;;;;;;;9.03;2.47;;;14.40;99.90;;;;;;6311955;22;20175;-87
2021/12/30 00:40:27;;;;;;;10.20;3.77;;;14.50;99.90;;;;;;6312015;22;20179;-88
2021/12/30 00:42:53;;;;;;;8.93;2.53;;;14.50;99.90;;;;;;6311979;22;20154;-88
2021/12/30 00:45:19;;;;;;;12.63;3.47;;;14.50;99.90;;;;;;6311863;22;20142;-87
2021/12/30 00:47:45;;;;;;;11.30;3.80;;;14.50;99.90;;;;;;6311626;22;20204;-87
2021/12/30 00:50:11;;;;;;;8.77;3.27;;;14.50;99.90;;;;;;6312134;22;20139;-87
2021/12/30 00:52:37;;;;;;;12.73;2.93;;;14.50;99.90;;;;;;6311682;22;20243;-87
2021/12/30 00:55:06;;;;;;;10.50;2.90;;;14.50;99.90;;;;;;6311692;22;20569;-86
2021/12/30 00:57:32;;;;;;;9.20;2.83;;;14.60;99.90;;;;;;6311970;22;20224;-87
2021/12/30 00:59:57;;;;;;;6.03;2.20;;;14.60;99.90;;;;;;6311663;22;20532;-87
2021/12/30 01:02:23;;;;;;;6.17;2.70;;;14.60;99.90;;;;;;6311771;22;20457;-87
2021/12/30 01:04:49;;;;;;;5.73;2.40;;;14.60;99.90;;;;;;6311043;22;20151;-87
2021/12/30 01:07:15;;;;;;;6.97;1.53;;;14.50;99.90;;;;;;6311583;22;20240;-88
2021/12/30 01:09:40;;;;;;;7.33;1.97;;;14.60;99.90;;;;;;6311611;22;20190;-87
2021/12/30 01:12:07;;;;;;;8.60;2.53;;;14.50;99.90;;;;;;6311529;22;20542;-87
2021/12/30 01:14:35;;;;;;;8.77;1.83;;;14.50;99.90;;;;;;6311631;22;20148;-87
2021/12/30 01:17:14;;;;;;;11.10;1.50;;;14.50;99.90;;;;;;6311640;22;20169;-87
2021/12/30 01:19:43;;;;;;;8.63;1.30;;;14.40;99.90;;;;;;6311643;22;20139;-88
2021/12/30 01:22:13;;;;;;;5.13;1.20;;;14.20;99.90;;;;;;6311138;22;20515;-87
2021/12/30 01:24:39;;;;;;;4.47;1.00;;;14.10;99.90;;;;;;6311224;22;20143;-88
2021/12/30 01:27:06;;;;;;;8.37;1.50;;;14.20;99.90;;;;;;6311763;22;20195;-88
2021/12/30 01:29:32;;;;;;;3.07;1.10;;;14.30;99.90;;;;;;6338712;22;20136;-88
2021/12/30 01:31:58;;;;;;;3.90;2.17;;;14.40;99.90;;;;;;6311407;22;20605;-87
2021/12/30 01:34:26;;;;;;;3.40;1.80;;;14.40;99.90;;;;;;6311733;22;20155;-88
2021/12/30 01:36:52;;;;;;;3.37;1.43;;;14.40;99.90;;;;;;6311135;22;20143;-87
2021/12/30 01:39:20;;;;;;;4.43;1.00;;;14.40;99.90;;;;;;6311030;22;20142;-87
2021/12/30 01:41:45;;;;;;;5.57;2.57;;;14.40;99.90;;;;;;6311337;22;20152;-88
2021/12/30 01:44:11;;;;;;;3.77;1.50;;;14.30;99.90;;;;;;6311443;22;20153;-87
2021/12/30 01:46:41;;;;;;;4.13;2.00;;;14.40;99.90;;;;;;6311350;22;20641;-88
2021/12/30 01:49:10;;;;;;;6.33;2.50;;;14.30;99.90;;;;;;6311540;22;20159;-87
2021/12/30 01:51:36;;;;;;;3.10;2.20;;;14.30;99.90;;;;;;6310826;22;20151;-88
2021/12/30 01:54:03;;;;;;;3.47;2.13;;;14.40;99.90;;;;;;6311494;22;20146;-88
2021/12/30 01:56:28;;;;;;;4.13;2.97;;;14.40;99.90;;;;;;6311498;22;20143;-87
2021/12/30 01:58:55;;;;;;;7.40;4.20;;;14.40;99.90;;;;;;6311450;22;20603;-88
2021/12/30 02:01:21;;;;;;;9.63;5.60;;;14.40;99.90;;;;;;6311252;22;20567;-88
2021/12/30 02:03:47;;;;;;;10.97;6.20;;;14.40;99.90;;;;;;6311386;22;20233;-88
2021/12/30 02:06:13;;;;;;;12.27;5.90;;;14.40;99.90;;;;;;6310969;22;20234;-88
2021/12/30 02:08:39;;;;;;;12.77;6.40;;;14.50;99.90;;;;;;6311391;22;20141;-88
2021/12/30 02:11:05;;;;;;;11.93;6.00;;;14.40;99.90;;;;;;6311531;22;20163;-87
2021/12/30 02:13:31;;;;;;;7.93;5.00;;;14.40;99.90;;;;;;6311167;22;20237;-87
2021/12/30 02:16:01;;;;;;;7.70;4.30;;;14.30;99.90;;;;;;6311229;22;20149;-87
2021/12/30 02:18:27;;;;;;;8.83;4.67;;;14.40;99.90;;;;;;6313450;22;20157;-88
2021/12/30 02:20:55;;;;;;;7.10;4.27;;;14.30;99.90;;;;;;6312908;22;20148;-88
2021/12/30 02:23:25;;;;;;;4.97;4.13;;;14.40;99.90;;;;;;6313536;22;20190;-87
2021/12/30 02:25:54;;;;;;;5.13;3.40;;;14.30;99.90;;;;;;6313114;22;20177;-88
2021/12/30 02:28:23;;;;;;;5.20;3.50;;;14.40;99.90;;;;;;6313333;22;20166;-87
2021/12/30 02:30:50;;;;;;;6.80;3.60;;;14.40;99.90;;;;;;6313343;22;20150;-87
2021/12/30 02:33:16;;;;;;;5.80;3.60;;;14.40;99.90;;;;;;6313206;22;20515;-88
2021/12/30 02:35:42;;;;;;;7.40;3.83;;;14.50;99.90;;;;;;6312678;22;20152;-87
2021/12/30 02:38:08;;;;;;;6.23;3.80;;;14.40;99.90;;;;;;6313472;22;20147;-87
2021/12/30 02:40:49;;;;;;;5.60;4.10;;;14.40;99.90;;;;;;6313094;22;20147;-87
2021/12/30 02:43:17;;;;;;;5.07;3.77;;;14.40;99.90;;;;;;6312948;22;20233;-87
2021/12/30 02:45:43;;;;;;;7.50;4.00;;;14.40;99.90;;;;;;6313146;22;20154;-88
2021/12/30 02:48:18;;;;;;;6.90;4.23;;;14.40;99.90;;;;;;6313460;22;20150;-87
2021/12/30 02:50:46;;;;;;;4.93;3.73;;;14.40;99.90;;;;;;6312889;22;20137;-87
2021/12/30 02:53:13;;;;;;;5.90;4.07;;;14.50;99.90;;;;;;6312953;22;20553;-87
2021/12/30 02:55:40;;;;;;;7.07;4.27;;;14.50;99.90;;;;;;6313087;22;20170;-87
2021/12/30 02:58:06;;;;;;;8.57;4.00;;;14.40;99.90;;;;;;6313025;22;20146;-88
2021/12/30 03:00:32;;;;;;;6.83;4.50;;;14.50;99.90;;;;;;6312762;22;20217;-88
2021/12/30 03:02:58;;;;;;;6.37;4.27;;;14.50;99.90;;;;;;6312386;22;20142;-88
2021/12/30 03:05:25;;;;;;;5.43;4.00;;;14.50;99.90;;;;;;6313500;22;20149;-87
2021/12/30 03:07:52;;;;;;;7.40;4.40;;;14.50;99.90;;;;;;6313022;22;20151;-87
2021/12/30 03:10:22;;;;;;;6.40;3.67;;;14.40;99.90;;;;;;6312911;22;20147;-87
2021/12/30 03:12:55;;;;;;;4.37;3.00;;;14.50;99.90;;;;;;6312596;22;20178;-87
2021/12/30 03:15:22;;;;;;;3.83;2.63;;;14.50;99.90;;;;;;6312711;22;20144;-87
2021/12/30 03:17:48;;;;;;;4.90;2.50;;;14.50;99.90;;;;;;6311629;22;20183;-88
2021/12/30 03:20:14;;;;;;;3.60;2.57;;;14.60;99.90;;;;;;6312906;22;20140;-88
2021/12/30 03:22:41;;;;;;;3.43;2.20;;;14.60;99.90;;;;;;6312614;22;20153;-88
2021/12/30 03:25:11;;;;;;;3.40;2.30;;;14.60;99.90;;;;;;6312799;22;20500;-87
2021/12/30 03:27:38;;;;;;;3.20;1.50;;;14.60;99.90;;;;;;6312538;22;20204;-89
2021/12/30 03:30:12;;;;;;;1.83;1.40;;;14.70;99.90;;;;;;6312918;22;20186;-88
2021/12/30 03:32:38;;;;;;;1.27;1.13;;;14.70;99.90;;;;;;6312004;22;20226;-88
2021/12/30 03:35:04;;;;;;;1.10;1.00;;;14.80;99.90;;;;;;6313112;22;20159;-87
2021/12/30 03:37:30;;;;;;;1.50;0.70;;;14.80;99.90;;;;;;6312467;22;20239;-88
2021/12/30 03:39:55;;;;;;;1.23;0.57;;;14.80;99.90;;;;;;6312629;22;20182;-88
2021/12/30 03:42:21;;;;;;;0.47;0.47;;;14.80;99.90;;;;;;6312432;22;20139;-87
2021/12/30 03:44:48;;;;;;;0.40;0.40;;;14.80;99.90;;;;;;6312631;22;20593;-88
2021/12/30 03:47:17;;;;;;;0.60;0.40;;;14.80;99.90;;;;;;6311996;22;20239;-88
2021/12/30 03:49:45;;;;;;;0.80;0.50;;;14.80;99.90;;;;;;6312667;22;20225;-89
2021/12/30 03:52:22;;;;;;;0.50;0.50;;;15.00;99.90;;;;;;6312364;22;20174;-88
2021/12/30 03:54:48;;;;;;;0.80;0.30;;;15.00;99.90;;;;;;6312269;22;20158;-87
2021/12/30 03:57:14;;;;;;;1.30;0.40;;;15.00;99.90;;;;;;6312404;22;20171;-88
2021/12/30 03:59:40;;;;;;;0.20;0.20;;;14.90;99.90;;;;;;6312773;22;20158;-87
2021/12/30 04:02:05;;;;;;;1.07;0.30;;;14.90;99.90;;;;;;6312427;22;20154;-88
2021/12/30 04:04:32;;;;;;;0.40;0.40;;;15.00;99.90;;;;;;6312134;22;20569;-89
2021/12/30 04:06:57;;;;;;;0.77;0.30;;;15.00;99.90;;;;;;6312286;22;20150;-87
2021/12/30 04:09:23;;;;;;;0.30;0.30;;;15.00;99.90;;;;;;6312459;22;20182;-88
2021/12/30 04:11:48;;;;;;;0.50;0.30;;;15.00;99.90;;;;;;6312720;22;20154;-88
2021/12/30 04:14:15;;;;;;;0.40;0.33;;;15.00;99.90;;;;;;6312186;22;20161;-88
2021/12/30 04:16:40;;;;;;;2.40;0.70;;;14.90;99.90;;;;;;6311798;22;20173;-88
2021/12/30 04:19:06;;;;;;;0.60;0.60;;;14.90;99.90;;;;;;6312318;22;20147;-88
2021/12/30 04:21:32;;;;;;;2.37;1.00;;;14.90;99.90;;;;;;6312364;22;20150;-87
2021/12/30 04:23:59;;;;;;;1.23;1.03;;;14.90;99.90;;;;;;6311602;22;20228;-88
2021/12/30 04:26:24;;;;;;;1.50;1.40;;;14.90;99.90;;;;;;6312099;22;20668;-88
2021/12/30 04:28:50;;;;;;;3.57;1.80;;;14.80;99.90;;;;;;6311905;22;20143;-88
2021/12/30 04:31:16;;;;;;;2.43;1.80;;;14.80;99.90;;;;;;6311905;22;20183;-88
2021/12/30 04:33:42;;;;;;;4.93;2.70;;;14.80;99.90;;;;;;6312149;22;20187;-88
2021/12/30 04:36:08;;;;;;;5.67;2.93;;;14.80;99.90;;;;;;6311984;22;20147;-88
2021/12/30 04:38:35;;;;;;;5.17;3.13;;;14.90;99.90;;;;;;6312130;22;20153;-86
2021/12/30 04:41:01;;;;;;;4.43;3.00;;;14.80;99.90;;;;;;6312245;22;20176;-88
2021/12/30 04:43:27;;;;;;;5.37;3.43;;;14.90;99.90;;;;;;6311822;22;20598;-88
2021/12/30 04:45:53;;;;;;;4.57;2.90;;;14.90;99.90;;;;;;6311932;22;20159;-88
2021/12/30 04:48:20;;;;;;;5.57;3.53;;;14.90;99.90;;;;;;6311833;22;20174;-88
2021/12/30 04:50:46;;;;;;;4.70;3.20;;;14.90;99.90;;;;;;6311837;22;20156;-88
2021/12/30 04:53:13;;;;;;;5.03;3.17;;;14.90;99.90;;;;;;6311630;22;20617;-88
2021/12/30 04:55:39;;;;;;;5.23;3.10;;;14.90;99.90;;;;;;6311942;22;20151;-88
2021/12/30 04:58:05;;;;;;;4.50;3.13;;;14.90;99.90;;;;;;6312406;22;20142;-88
2021/12/30 05:00:32;;;;;;;4.10;2.90;;;14.90;99.90;;;;;;6311536;22;20159;-88
2021/12/30 05:05:24;;;;;;;3.43;2.37;;;14.90;99.90;;;;;;6349638;22;20144;-88
2021/12/30 05:07:49;;;;;;;3.40;2.43;;;14.90;99.90;;;;;;6311769;22;20475;-87
2021/12/30 05:10:15;;;;;;;2.00;1.63;;;14.90;99.90;;;;;;6311672;22;20191;-88
2021/12/30 05:12:40;;;;;;;2.57;2.00;;;14.80;99.90;;;;;;6311564;22;20174;-87
2021/12/30 05:15:06;;;;;;;3.30;1.97;;;14.80;99.90;;;;;;6311679;22;20176;-88
2021/12/30 05:17:34;;;;;;;2.63;1.60;;;14.70;99.90;;;;;;6311538;22;20234;-88
2021/12/30 05:20:00;;;;;;;3.30;1.60;;;14.80;99.90;;;;;;6311455;22;20148;-87
2021/12/30 05:22:26;;;;;;;3.97;2.17;;;14.80;99.90;;;;;;6311544;22;20154;-88
2021/12/30 05:24:51;;;;;;;2.73;1.60;;;14.80;99.90;;;;;;6311451;22;20249;-87
2021/12/30 05:27:19;;;;;;;1.90;1.30;;;14.80;99.90;;;;;;6311643;22;20159;-87
2021/12/30 05:29:45;;;;;;;2.80;1.40;;;14.80;99.90;;;;;;6311177;22;20157;-87
2021/12/30 05:32:11;;;;;;;2.93;1.63;;;14.80;99.90;;;;;;6311541;22;20207;-87
2021/12/30 05:34:37;;;;;;;3.60;1.80;;;14.80;99.90;;;;;;6311351;22;20156;-87
2021/12/30 05:37:03;;;;;;;2.60;1.93;;;14.90;99.90;;;;;;6311902;22;20176;-88
2021/12/30 05:39:29;;;;;;;2.73;2.10;;;14.90;99.90;;;;;;6311306;22;20241;-87
2021/12/30 05:41:55;;;;;;;6.07;3.63;;;14.90;99.90;;;;;;6311551;22;20143;-88
2021/12/30 05:44:21;;;;;;;5.97;3.47;;;14.80;99.90;;;;;;6311209;22;20139;-88
2021/12/30 05:46:47;;;;;;;5.17;3.80;;;14.80;99.90;;;;;;6311681;22;20216;-88
2021/12/30 05:49:12;;;;;;;6.93;3.90;;;14.90;99.90;;;;;;6311463;22;20159;-88
2021/12/30 05:51:38;;;;;;;5.90;4.07;;;14.90;99.90;;;;;;6311451;22;20575;-87
2021/12/30 05:54:04;;;;;;;7.37;4.20;;;15.00;99.90;;;;;;6311403;22;20190;-88
2021/12/30 05:56:29;;;;;;;5.83;4.00;;;14.90;99.90;;;;;;6311165;22;20139;-87
2021/12/30 05:58:56;;;;;;;4.70;3.27;;;14.90;99.90;;;;;;6311303;22;20178;-87
2021/12/30 06:01:21;;;;;;;5.70;3.60;;;15.00;99.90;;;;;;6311496;22;20152;-88
2021/12/30 06:03:47;;;;;;;6.13;3.93;;;15.00;99.90;;;;;;6311336;22;20151;-87
2021/12/30 06:06:13;;;;;;;4.10;2.77;;;15.00;99.90;;;;;;6311485;22;20154;-87
2021/12/30 06:08:38;;;;;;;3.10;2.60;;;14.90;99.90;;;;;;6311690;22;20200;-87
2021/12/30 06:11:04;;;;;;;4.00;2.60;;;14.90;99.90;;;;;;6311459;22;20176;-87
2021/12/30 06:13:29;;;;;;;4.30;2.53;;;14.90;99.90;;;;;;6311313;22;20266;-87
2021/12/30 06:15:55;;;;;;;3.23;2.17;;;14.90;99.90;;;;;;6310849;22;20252;-87
2021/12/30 06:18:21;;;;;;;3.97;2.57;;;15.00;99.90;;;;;;6311202;22;20160;-87
2021/12/30 06:20:46;;;;;;;4.93;2.50;;;15.00;99.90;;;;;;6311055;22;20144;-87
2021/12/30 06:23:12;;;;;;;2.80;2.20;;;15.00;99.90;;;;;;6311374;22;20151;-87
2021/12/30 06:25:37;;;;;;;3.10;2.03;;;15.00;99.90;;;;;;6310717;22;20175;-90
2021/12/30 06:28:03;;;;;;;4.03;2.10;;;14.90;99.90;;;;;;6311166;22;20151;-88
2021/12/30 06:30:29;;;;;;;2.87;1.90;;;15.00;99.90;;;;;;6311248;22;20145;-88
2021/12/30 06:32:55;;;;;;;2.50;2.10;;;15.00;99.90;;;;;;6311490;22;20699;-87
2021/12/30 06:35:21;;;;;;;3.10;2.40;;;15.10;99.90;;;;;;6311065;22;20149;-87
2021/12/30 06:37:47;;;;;;;3.87;2.40;;;15.10;99.90;;;;;;6285555;22;20168;-86
2021/12/30 06:40:14;;;;;;;3.00;2.20;;;15.10;99.90;;;;;;6311114;22;20177;-87
2021/12/30 06:42:44;;;;;;;3.67;2.00;;;15.00;99.90;;;;;;6310963;22;20142;-88
2021/12/30 06:45:11;;;;;;;4.00;2.20;;;14.90;99.90;;;;;;6311187;22;20155;-87
2021/12/30 06:47:37;;;;;;;3.73;2.77;;;14.90;99.90;;;;;;6311307;22;20157;-87
2021/12/30 06:50:03;;;;;;;6.70;3.10;;;14.90;99.90;;;;;;6311179;22;20178;-87
2021/12/30 06:52:30;;;;;;;4.50;2.80;;;14.90;99.90;;;;;;6310715;22;20240;-87
2021/12/30 06:54:56;;;;;;;3.67;2.77;;;14.90;99.90;;;;;;6310927;22;20159;-87
2021/12/30 06:57:21;;;;;;;6.17;3.10;;;14.90;99.90;;;;;;6311057;22;20157;-87
2021/12/30 06:59:47;;;;;;;4.17;2.53;;;14.90;99.90;;;;;;6310870;22;20604;-90
2021/12/30 07:02:14;;;;;;;5.47;3.00;;;14.90;99.90;;;;;;6311054;22;20587;-89
2021/12/30 07:04:40;;;;;;;4.07;2.57;;;14.90;99.90;;;;;;6313142;22;20195;-89
2021/12/30 07:07:06;;;;;;;4.90;2.70;;;14.90;99.90;;;;;;6312909;22;20155;-89
2021/12/30 07:09:31;;;;;;;5.00;2.90;;;15.00;99.90;;;;;;6312533;22;20186;-90
2021/12/30 07:11:58;;;;;;;5.00;2.80;;;15.00;99.90;;;;;;6309081;22;20475;-90
2021/12/30 07:14:25;;;;;;;4.07;2.63;;;14.90;99.90;;;;;;6308470;22;20193;-89
2021/12/30 07:16:51;;;;;;;4.40;2.50;;;15.00;99.90;;;;;;6311965;22;20169;-90
2021/12/30 07:19:17;;;;;;;3.23;2.23;;;15.00;99.90;;;;;;6311508;22;20215;-90
2021/12/30 07:21:43;;;;;;;3.93;2.80;;;15.00;99.90;;;;;;6312105;22;20151;-90
2021/12/30 07:24:09;;;;;;;3.37;2.00;;;15.00;99.90;;;;;;6312339;22;20148;-90
2021/12/30 07:26:35;;;;;;;2.90;2.07;;;15.00;99.90;;;;;;6312106;22;20206;-89
2021/12/30 07:29:01;;;;;;;3.90;2.00;;;14.90;99.90;;;;;;6312243;22;20158;-90
2021/12/30 07:31:28;;;;;;;4.27;2.20;;;14.90;99.90;;;;;;6311756;22;20235;-90
2021/12/30 07:33:54;;;;;;;6.03;2.40;;;14.90;99.90;;;;;;6311804;22;20613;-91
2021/12/30 07:36:19;;;;;;;4.47;2.57;;;15.00;99.90;;;;;;6311723;22;20229;-90
2021/12/30 07:38:45;;;;;;;4.37;2.70;;;15.00;99.90;;;;;;6312099;22;20209;-89
2021/12/30 07:41:10;;;;;;;4.37;2.40;;;15.10;99.90;;;;;;6312728;22;20152;-90
2021/12/30 07:43:36;;;;;;;3.30;2.63;;;15.10;99.90;;;;;;6312047;22;20150;-90
2021/12/30 07:46:02;;;;;;;6.70;2.40;;;15.10;99.90;;;;;;6312163;22;20162;-90
2021/12/30 07:48:28;;;;;;;5.97;3.27;;;15.20;99.90;;;;;;6312128;22;20152;-89
2021/12/30 07:50:54;;;;;;;4.87;3.30;;;15.10;99.90;;;;;;6312098;22;20160;-90
2021/12/30 07:53:20;;;;;;;4.77;3.20;;;15.00;99.90;;;;;;6312112;22;20188;-89
2021/12/30 07:55:46;;;;;;;8.53;4.07;;;15.10;99.90;;;;;;6312483;22;20232;-90
2021/12/30 07:58:11;;;;;;;6.43;3.73;;;15.10;99.90;;;;;;6315146;22;20471;-90
2021/12/30 08:00:37;;;;;;;4.73;3.30;;;15.10;99.90;;;;;;6311548;22;20478;-89
2021/12/30 08:03:03;;;;;;;4.33;2.77;;;15.10;99.90;;;;;;6310382;22;20147;-89
2021/12/30 08:05:29;;;;;;;5.20;3.23;;;15.10;99.90;;;;;;6312483;22;20147;-89
2021/12/30 08:07:54;;;;;;;5.93;3.60;;;15.20;99.90;;;;;;6311915;22;20156;-89
2021/12/30 08:10:22;;;;;;;7.40;3.50;;;15.20;99.90;;;;;;6312225;22;20154;-90
2021/12/30 08:12:48;;;;;;;7.53;3.03;;;15.30;99.90;;;;;;6312048;22;20558;-89
2021/12/30 08:15:15;;;;;;;5.23;3.10;;;15.30;99.90;;;;;;6312838;22;20163;-89
2021/12/30 08:17:42;;;;;;;6.60;3.13;;;15.40;99.90;;;;;;6312263;22;20250;-90
2021/12/30 08:20:09;;;;;;;7.07;3.43;;;15.40;99.90;;;;;;6312371;22;20585;-90
2021/12/30 08:22:35;;;;;;;6.23;3.67;;;15.30;99.90;;;;;;6311389;22;20156;-89
2021/12/30 08:25:01;;;;;;;5.20;3.30;;;15.30;99.90;;;;;;6312106;22;20629;-89
2021/12/30 08:27:27;;;;;;;5.13;3.43;;;15.30;99.90;;;;;;6312196;22;20148;-89
2021/12/30 08:29:52;;;;;;;5.40;3.00;;;15.30;99.90;;;;;;6312050;22;20174;-90
2021/12/30 08:32:18;;;;;;;7.40;3.10;;;15.30;99.90;;;;;;6312123;22;20182;-90
2021/12/30 08:34:45;;;;;;;6.77;3.27;;;15.30;99.90;;;;;;6312175;22;20171;-90
2021/12/30 08:37:13;;;;;;;6.77;3.13;;;15.40;99.90;;;;;;6312366;22;20470;-89
2021/12/30 08:39:42;;;;;;;6.40;3.47;;;15.40;99.90;;;;;;6312095;22;20175;-89
2021/12/30 08:42:19;;;;;;;6.73;3.20;;;15.40;99.90;;;;;;6311940;22;20616;-89
2021/12/30 08:44:46;;;;;;;8.20;3.67;;;15.40;99.90;;;;;;6312021;22;20177;-90
2021/12/30 08:47:12;;;;;;;8.03;2.97;;;15.50;99.90;;;;;;6311970;22;20150;-90
2021/12/30 08:49:41;;;;;;;6.27;2.97;;;15.60;99.90;;;;;;6311833;22;20182;-89
2021/12/30 08:52:08;;;;;;;5.20;2.67;;;15.60;99.90;;;;;;6311565;22;20248;-89
2021/12/30 08:54:35;;;;;;;7.13;2.93;;;15.60;99.90;;;;;;6312010;22;20156;-89
2021/12/30 08:57:01;;;;;;;6.63;3.23;;;15.50;99.90;;;;;;6312195;22;20569;-89
2021/12/30 08:59:26;;;;;;;6.33;2.53;;;15.50;99.90;;;;;;6311695;22;20182;-89
2021/12/30 09:01:52;;;;;;;9.07;3.10;;;15.50;99.90;;;;;;6312367;22;20147;-89
2021/12/30 09:04:19;;;;;;;6.07;3.00;;;15.40;99.90;;;;;;6311746;22;20236;-90
2021/12/30 09:06:44;;;;;;;8.47;2.67;;;15.50;99.90;;;;;;6311861;22;20228;-89
2021/12/30 09:09:10;;;;;;;9.67;2.67;;;15.60;99.90;;;;;;6311703;22;20173;-89
2021/12/30 09:11:38;;;;;;;7.73;2.73;;;15.60;99.90;;;;;;6312022;22;20621;-89
2021/12/30 09:14:04;;;;;;;7.17;2.60;;;15.50;99.90;;;;;;6311386;22;20196;-90
2021/12/30 09:16:29;;;;;;;7.93;2.47;;;15.50;99.90;;;;;;6311761;22;20162;-90
2021/12/30 09:18:56;;;;;;;8.60;2.90;;;15.50;99.90;;;;;;6311607;22;20152;-89
2021/12/30 09:21:22;;;;;;;8.50;3.20;;;15.50;99.90;;;;;;6311304;22;20166;-89
2021/12/30 09:23:48;;;;;;;10.43;3.30;;;15.40;99.90;;;;;;6311563;22;20160;-89
2021/12/30 09:26:14;;;;;;;7.47;2.97;;;15.40;99.90;;;;;;6311272;22;20420;-90
2021/12/30 09:28:40;;;;;;;4.97;2.87;;;15.50;99.90;;;;;;6311901;22;20159;-89
2021/12/30 09:31:06;;;;;;;7.33;2.20;;;15.40;99.90;;;;;;6311676;22;20564;-90
2021/12/30 09:33:32;;;;;;;8.47;3.00;;;15.50;99.90;;;;;;6311477;22;20207;-89
2021/12/30 09:36:00;;;;;;;5.40;2.40;;;15.50;99.90;;;;;;6311282;22;20152;-89
2021/12/30 09:38:25;;;;;;;6.20;2.60;;;15.40;99.90;;;;;;6311728;22;20147;-90
2021/12/30 09:40:51;;;;;;;6.90;2.50;;;15.40;99.90;;;;;;6311323;22;20208;-89
2021/12/30 09:43:17;;;;;;;9.63;2.67;;;15.40;99.90;;;;;;6311626;22;20151;-90
2021/12/30 09:45:43;;;;;;;6.90;3.63;;;15.30;99.90;;;;;;6311810;22;20151;-89
2021/12/30 09:48:12;;;;;;;12.83;3.60;;;15.30;99.90;;;;;;6311742;22;20258;-89
2021/12/30 09:50:43;;;;;;;6.03;3.70;;;15.20;99.90;;;;;;6311070;22;20148;-90
2021/12/30 09:53:09;;;;;;;6.73;3.33;;;15.10;99.90;;;;;;6311514;22;20242;-90
2021/12/30 09:55:36;;;;;;;6.17;3.57;;;15.20;99.90;;;;;;6311309;22;20151;-90
2021/12/30 09:58:02;;;;;;;7.13;3.83;;;15.00;99.90;;;;;;6311354;22;20532;-89
2021/12/30 10:00:29;;;;;;;5.57;3.90;;;15.10;99.90;;;;;;6311126;22;20178;-89
2021/12/30 10:02:55;;;;;;;10.20;3.67;;;15.10;99.90;;;;;;6311363;22;20150;-90
2021/12/30 10:05:24;;;;;;;7.57;3.63;;;15.20;99.90;;;;;;6311232;22;20230;-89
2021/12/30 10:08:18;;;;;;;5.90;4.00;;;15.30;99.90;;;;;;6311966;22;20145;-89
2021/12/30 10:10:56;;;;;;;7.70;3.50;;;15.30;99.90;;;;;;6311112;22;20169;-90
2021/12/30 10:13:35;;;;;;;6.73;3.67;;;15.30;99.90;;;;;;6311626;22;20662;-89
2021/12/30 10:16:11;;;;;;;9.27;3.47;;;15.40;99.90;;;;;;6311077;22;20238;-89
2021/12/30 10:18:48;;;;;;;5.57;3.20;;;15.50;99.90;;;;;;6311149;22;20171;-89
2021/12/30 10:21:22;;;;;;;7.67;3.37;;;15.50;99.90;;;;;;6311073;22;20278;-90
2021/12/30 10:24:00;;;;;;;6.23;3.40;;;15.50;99.90;;;;;;6311569;22;20602;-89
2021/12/30 10:26:26;;;;;;;5.70;2.70;;;15.50;99.90;;;;;;6311041;22;20678;-89
2021/12/30 10:28:59;;;;;;;5.87;3.20;;;15.50;99.90;;;;;;6311646;22;20151;-89
2021/12/30 10:31:33;;;;;;;6.07;3.23;;;15.50;99.90;;;;;;6311153;22;20143;-89
2021/12/30 10:33:59;;;;;;;10.83;3.73;;;15.60;99.90;;;;;;6310905;22;20267;-90
2021/12/30 10:36:31;;;;;;;8.00;3.60;;;15.50;99.90;;;;;;6311123;22;20453;-89
2021/12/30 10:39:16;;;;;;;8.27;3.07;;;15.50;99.90;;;;;;6313339;22;20150;-89
2021/12/30 10:41:41;;;;;;;7.27;2.83;;;15.50;99.90;;;;;;6313493;22;20155;-89
2021/12/30 10:44:07;;;;;;;5.90;2.80;;;15.60;99.90;;;;;;6313367;22;20144;-89
2021/12/30 10:46:33;;;;;;;4.90;2.90;;;15.50;99.90;;;;;;6313159;22;20155;-90
2021/12/30 10:49:05;;;;;;;6.17;2.90;;;15.50;99.90;;;;;;6312890;22;20241;-89
2021/12/30 10:51:39;;;;;;;9.57;2.80;;;15.50;99.90;;;;;;6312929;22;20239;-89
2021/12/30 10:54:15;;;;;;;5.83;2.83;;;15.60;99.90;;;;;;6312978;22;20192;-89
2021/12/30 10:56:44;;;;;;;7.27;2.97;;;15.70;99.90;;;;;;6312899;22;20143;-88
2021/12/30 10:59:15;;;;;;;8.37;3.27;;;15.60;99.90;;;;;;6313103;22;20203;-89
2021/12/30 11:01:48;;;;;;;7.57;3.40;;;15.60;99.90;;;;;;6312717;22;20191;-89
2021/12/30 11:04:14;;;;;;;6.10;3.20;;;15.70;99.90;;;;;;6313173;22;20148;-89
2021/12/30 11:06:40;;;;;;;7.73;3.10;;;15.70;99.90;;;;;;6312715;22;20198;-89
2021/12/30 11:09:12;;;;;;;8.00;3.73;;;15.70;99.90;;;;;;6312932;22;20159;-89
2021/12/30 11:11:45;;;;;;;6.50;2.90;;;15.80;99.90;;;;;;6312580;22;20175;-89
2021/12/30 11:14:19;;;;;;;9.63;3.93;;;15.80;99.90;;;;;;6312922;22;20694;-89
2021/12/30 11:17:05;;;;;;;6.47;2.83;;;15.80;99.90;;;;;;6312483;22;20163;-89
2021/12/30 11:19:43;;;;;;;6.67;3.87;;;15.60;99.90;;;;;;6313280;22;20160;-89
2021/12/30 11:22:14;;;;;;;11.20;5.50;;;15.50;99.90;;;;;;6312659;22;20209;-89
2021/12/30 11:24:41;;;;;;;4.87;2.93;;;15.60;99.90;;;;;;6312752;22;20213;-89
2021/12/30 11:27:10;;;;;;;8.10;4.60;;;15.70;99.90;;;;;;6312570;22;20156;-88
2021/12/30 11:29:37;;;;;;;5.17;3.03;;;15.70;99.90;;;;;;6312906;22;20224;-89
2021/12/30 11:32:06;;;;;;;6.27;3.87;;;15.80;99.90;;;;;;6312272;22;20150;-89
2021/12/30 11:34:32;;;;;;;11.13;5.33;;;15.70;99.90;;;;;;6313035;22;20160;-89
2021/12/30 11:36:58;;;;;;;5.30;3.10;;;15.70;99.90;;;;;;6313043;22;20175;-88
2021/12/30 11:39:25;;;;;;;7.50;2.87;;;15.60;99.90;;;;;;6312739;22;20145;-89
2021/12/30 11:41:58;;;;;;;6.77;2.80;;;15.70;99.90;;;;;;6312654;22;20598;-89
2021/12/30 11:44:54;;;;;;;7.87;2.80;;;15.80;99.90;;;;;;6312791;22;20159;-88
2021/12/30 11:47:32;;;;;;;4.40;3.07;;;15.80;99.90;;;;;;6312735;22;20178;-88
2021/12/30 11:50:08;;;;;;;5.70;3.07;;;15.90;99.90;;;;;;6312533;22;20203;-89
2021/12/30 11:52:51;;;;;;;6.23;3.07;;;15.90;99.90;;;;;;6312452;22;20174;-89
2021/12/30 11:55:38;;;;;;;6.60;3.37;;;15.80;99.90;;;;;;6312875;22;20164;-89
2021/12/30 11:58:29;;;;;;;8.63;3.37;;;15.90;99.90;;;;;;6312223;22;20163;-89
2021/12/30 12:00:57;;;;;;;9.17;3.23;;;15.80;99.90;;;;;;6312105;22;20156;-89
2021/12/30 12:03:45;;;;;;;8.83;3.17;;;15.90;99.90;;;;;;6312786;22;20631;-89
2021/12/30 12:06:26;;;;;;;6.10;2.83;;;16.00;99.90;;;;;;6312331;22;20240;-89
2021/12/30 12:09:05;;;;;;;9.23;3.40;;;16.00;99.90;;;;;;6312417;22;20150;-89
2021/12/30 12:11:57;;;;;;;10.90;3.43;;;16.10;99.90;;;;;;6312715;22;20157;-89
2021/12/30 12:14:38;;;;;;;6.63;3.23;;;16.00;99.90;;;;;;6311889;22;20162;-89
2021/12/30 12:17:27;;;;;;;8.20;2.90;;;16.10;99.90;;;;;;6312084;22;20168;-89
2021/12/30 12:19:56;;;;;;;6.37;3.00;;;16.00;99.90;;;;;;6312387;22;20163;-89
2021/12/30 12:22:22;;;;;;;8.07;3.93;;;15.90;99.90;;;;;;6311837;22;20155;-89
2021/12/30 12:24:50;;;;;;;9.20;3.30;;;15.80;99.90;;;;;;6312133;22;20183;-90
2021/12/30 12:27:18;;;;;;;6.47;2.87;;;15.90;99.90;;;;;;6312036;22;20578;-89
2021/12/30 12:29:50;;;;;;;5.33;3.17;;;16.00;99.90;;;;;;6311924;22;20233;-89
2021/12/30 12:32:38;;;;;;;7.60;3.30;;;16.00;99.90;;;;;;6312207;22;20180;-90
2021/12/30 12:35:13;;;;;;;4.10;2.50;;;16.00;99.90;;;;;;6312217;22;20228;-89
2021/12/30 12:37:44;;;;;;;7.07;2.53;;;16.00;99.90;;;;;;6312113;22;20584;-89
2021/12/30 12:40:16;;;;;;;8.80;2.83;;;15.90;99.90;;;;;;6312054;22;20525;-89
2021/12/30 12:42:51;;;;;;;7.13;3.30;;;15.70;99.90;;;;;;6312198;22;20162;-89
2021/12/30 12:45:34;;;;;;;6.53;3.13;;;15.70;99.90;;;;;;6312354;22;20163;-89
2021/12/30 12:48:20;;;;;;;8.17;3.17;;;15.80;99.90;;;;;;6311872;22;20161;-89
2021/12/30 12:50:58;;;;;;;8.00;3.10;;;15.90;99.90;;;;;;6312295;22;20242;-89
2021/12/30 12:53:24;;;;;;;7.60;2.77;;;15.90;99.90;;;;;;6311794;22;20199;-89